Flight Track Log - Related Links

Times and Time Zones

All times are in EDT time to prevent confusion due to time zone crossing. See the C-GOAL flight status page for this flight to view local times or setup timezone preferences in your user account.

Time Position Orientation Groundspeed Altitude Reporting Facility
EDT Latitude Longitude Course Direction KTS MPH feet Rate Location/Type
Thu 04:28:39 PM 42.2919 -72.4372 22° Northeast 132 152 8,200  Level Boston Center
Thu 04:29:39 PM 42.3169 -72.4233 22° Northeast 110 127 8,800 545 Climbing Boston Center
Thu 04:30:40 PM 42.3461 -72.4092 20° North 110 127 9,300 397 Climbing Boston Center
Thu 04:31:40 PM 42.3733 -72.3922 25° Northeast 110 127 9,600 149 Climbing Boston Center
Thu 04:32:41 PM 42.4067 -72.3725 24° Northeast 110 127 9,600 -50 Level Boston Center
Thu 04:33:39 PM 42.4419 -72.3500 25° Northeast 122 140 9,500 -50 Descending Boston Center
Thu 04:34:40 PM 42.4775 -72.3219 30° Northeast 133 153 9,500 50 Level Boston Center
Thu 04:35:40 PM 42.5150 -72.3050 18° North 138 159 9,600  Climbing Boston Center
Thu 04:36:40 PM 42.5544 -72.2822 23° Northeast 138 159 9,500 -33 Descending Boston Center
Thu 04:38:00 PM 42.6193 -72.2593 15° North  Level FlightAware Approximate
Thu 04:38:41 PM 42.6294 -72.2425 15° North 138 159 9,500  Level Boston Center
Thu 04:39:39 PM 42.6669 -72.2256 18° North 138 159 9,600  Climbing Boston Center
Thu 04:40:39 PM 42.7044 -72.2142 13° North 133 153 9,500  Descending Boston Center
Thu 04:41:40 PM 42.7419 -72.1969 19° North 133 153 9,600  Climbing Boston Center
Thu 04:42:40 PM 42.7794 -72.1742 24° Northeast 140 161 9,500 -99 Descending Boston Center
Thu 04:43:41 PM 42.8169 -72.1542 21° North 140 161 9,400 50 Descending Boston Center
Thu 04:44:41 PM 42.8522 -72.1314 25° Northeast 140 161 9,600  Climbing Boston Center
Thu 04:45:41 PM 42.8875 -72.1058 28° Northeast 140 161 9,400 -254 Descending Boston Center
Thu 04:46:39 PM 42.9231 -72.0744 33° Northeast 140 161 9,100 -254 Descending Boston Center
Thu 04:47:39 PM 42.9583 -72.0458 31° Northeast 140 161 8,900 -248 Descending Boston Center
Thu 04:48:40 PM 42.9914 -72.0172 32° Northeast 140 161 8,600 -248 Descending Boston Center
Thu 04:49:40 PM 43.0289 -71.9886 29° Northeast 140 161 8,400 -50 Descending Boston Center
Thu 04:50:40 PM 43.0642 -71.9628 28° Northeast 140 161 8,500 99 Climbing Boston Center
Thu 04:51:41 PM 43.0994 -71.9397 26° Northeast 140 161 8,600  Climbing Boston Center
Thu 04:52:41 PM 43.1392 -71.9250 15° North 135 155 8,500 -51 Descending Boston Center
Thu 04:53:39 PM 43.1786 -71.9106 15° North 135 155 8,500  Level Boston Center
Thu 04:54:39 PM 43.2181 -71.8989 12° North 141 162 8,500 50 Level Boston Center
Thu 04:55:39 PM 43.2578 -71.8869 12° North 141 162 8,600 49 Climbing Boston Center
Thu 04:56:41 PM 43.2972 -71.8808 North 141 162 8,600  Level Boston Center
Thu 04:57:41 PM 43.3411 -71.8747 North 141 162 8,600 -51 Level Boston Center
Thu 04:58:39 PM 43.3783 -71.8631 13° North 156 180 8,500 -51 Descending Boston Center
Thu 04:59:39 PM 43.4222 -71.8483 14° North 151 174 8,500  Level Boston Center
Thu 05:00:40 PM 43.4594 -71.8336 16° North 151 174 8,500  Level Boston Center
Thu 05:01:41 PM 43.5075 -71.8189 13° North 151 174 8,500 50 Level Boston Center
Thu 05:02:39 PM 43.5386 -71.7986 25° Northeast 170 196 8,600 51 Climbing Boston Center
Thu 05:03:39 PM 43.5803 -71.7867 12° North 155 178 8,600 -50 Level Boston Center
Thu 05:04:39 PM 43.6197 -71.7661 21° North 144 166 8,500  Descending Boston Center
Thu 05:05:40 PM 43.6572 -71.7542 13° North 150 173 8,600 49 Climbing Boston Center
Thu 05:06:41 PM 43.6944 -71.7367 19° North 150 173 8,600  Level Boston Center
Thu 05:07:41 PM 43.7319 -71.7161 22° Northeast 145 167 8,600 -50 Level Boston Center
Thu 05:08:41 PM 43.7692 -71.6983 19° North 145 167 8,500  Descending Boston Center
Thu 05:09:39 PM 43.8067 -71.6806 19° North 145 167 8,600 51 Climbing Boston Center
Thu 05:10:39 PM 43.8461 -71.6658 15° North 145 167 8,600  Level Boston Center
Thu 05:11:40 PM 43.8814 -71.6450 23° Northeast 145 167 8,600  Level Boston Center
Thu 05:12:41 PM 43.9189 -71.6244 22° Northeast 140 161 8,600  Level Boston Center
Thu 05:13:41 PM 43.9583 -71.6122 13° North 140 161 8,600  Level Boston Center
Thu 05:14:39 PM 43.9936 -71.5917 23° Northeast 140 161 8,600  Level Boston Center
Thu 05:15:40 PM 44.0350 -71.5739 17° North 146 168 8,600  Level Boston Center
Thu 05:16:40 PM 44.0744 -71.5531 21° North 146 168 8,600  Level Boston Center
Thu 05:17:41 PM 44.1097 -71.5322 23° Northeast 141 162 8,600 -50 Level Boston Center
Thu 05:18:41 PM 44.1514 -71.5114 20° North 141 162 8,500  Descending Boston Center
Thu 05:19:39 PM 44.1844 -71.4906 24° Northeast 141 162 8,600  Climbing Boston Center
Thu 05:20:39 PM 44.2219 -71.4725 19° North 141 162 8,500 -50 Descending Boston Center
Thu 05:21:40 PM 44.2572 -71.4575 17° North 141 162 8,500  Level Boston Center
Thu 05:22:40 PM 44.2964 -71.4336 24° Northeast 146 168 8,500  Level Boston Center
Thu 05:23:41 PM 44.3358 -71.4097 23° Northeast 146 168 8,500 50 Level Boston Center
Thu 05:24:40 PM 44.3711 -71.3889 23° Northeast 146 168 8,600  Climbing Boston Center
Thu 05:25:40 PM 44.4022 -71.3736 19° North 146 168 8,500  Descending Boston Center
Thu 05:26:41 PM 44.4417 -71.3525 21° North 146 168 8,600  Climbing Boston Center
Thu 05:27:41 PM 44.4811 -71.3344 18° North 146 168 8,500 -51 Descending Boston Center
Thu 05:28:39 PM 44.5183 -71.3106 25° Northeast 146 168 8,500  Level Boston Center
Thu 05:29:40 PM 44.5556 -71.2922 19° North 146 168 8,500  Level Boston Center
Thu 05:31:00 PM 44.5949 -71.3401 319° Northwest  Level FlightAware Approximate
Thu 05:31:41 PM 44.6281 -71.2531 319° Northwest 146 168 8,500  Level Boston Center
Thu 05:32:41 PM 44.6675 -71.2347 18° North 146 168 8,600  Climbing Boston Center
Thu 05:33:39 PM 44.7069 -71.2164 18° North 146 168 8,500  Descending Boston Center
Thu 05:34:39 PM 44.7442 -71.2008 17° North 146 168 8,600  Climbing Boston Center
Thu 05:35:40 PM 44.7836 -71.1797 21° North 146 168 8,500 -50 Descending Boston Center
Thu 05:36:40 PM 44.8231 -71.1611 19° North 146 168 8,500  Level Boston Center
Thu 05:37:41 PM 44.8603 -71.1369 25° Northeast 146 168 8,500 50 Level Boston Center
Thu 05:38:41 PM 44.8953 -71.1128 26° Northeast 146 168 8,600 51 Climbing Boston Center
Thu 05:39:39 PM 44.9347 -71.0942 18° North 146 168 8,600 -51 Level Boston Center
Thu 05:40:39 PM 44.9719 -71.0728 22° Northeast 146 168 8,500 -50 Descending Boston Center
Thu 05:41:39 PM 45.0133 -71.0542 18° North 146 168 8,500 50 Level Boston Center
Thu 05:42:40 PM 45.0550 -71.0386 15° North 146 168 8,600 49 Climbing Boston Center
Thu 05:43:41 PM 45.0944 -71.0258 13° North 146 168 8,600  Level Boston Center
Thu 05:44:41 PM 45.1317 -71.0133 13° North 146 168 8,600 -51 Level Boston Center
Thu 05:45:39 PM 45.1711 -71.0006 13° North 146 168 8,500 -50 Descending Boston Center
Thu 05:46:41 PM 45.2083 -70.9906 11° North 146 168 8,500  Level Boston Center
Thu 05:47:39 PM 45.2478 -70.9750 16° North 146 168 8,500  Level Boston Center
Thu 05:48:40 PM 45.2853 -70.9622 13° North 146 168 8,500 52 Level Boston Center
Thu 05:49:34 PM 45.3000 -70.9333 54° Northeast 140 161 8,600 53 Climbing Montreal Center
Thu 05:50:34 PM 45.3500 -70.9333 360° North 150 173 8,600 -150 Level Montreal Center
Thu 05:51:34 PM 45.3833 -70.9333 360° North 150 173 8,300 -250 Descending Montreal Center
Thu 05:52:34 PM 45.4333 -70.9333 360° North 150 173 8,100 -200 Descending Montreal Center
Thu 05:53:34 PM 45.4667 -70.9000 35° Northeast 160 184 7,900 -250 Descending Montreal Center
Thu 05:54:34 PM 45.5167 -70.9000 360° North 150 173 7,600 -300 Descending Montreal Center
Thu 05:55:34 PM 45.5500 -70.9000 360° North 150 173 7,300 -350 Descending Montreal Center
Thu 05:56:34 PM 45.6000 -70.8667 25° Northeast 160 184 6,900 -500 Descending Montreal Center
Thu 05:57:34 PM 45.6333 -70.8333 35° Northeast 160 184 6,300 -700 Descending Montreal Center
Thu 05:58:34 PM 45.6833 -70.8000 25° Northeast 160 184 5,500 -800 Descending Montreal Center
Thu 06:00:00 PM 45.7380 -70.7864 10° North  Level FlightAware Approximate
Thu 06:07:00 PM 46.0052 -70.7197 10° North  Level FlightAware Approximate
Thu 06:08:00 PM 46.0434 -70.7101 10° North  Level FlightAware Approximate
Thu 06:09:00 PM 46.0815 -70.7005 10° North  Level FlightAware Approximate
Thu 06:10:00 PM 46.0833 -70.7000 14° North  Level FlightAware Approximate
Thu 06:11:00 PM 46.0964 -70.7147 14° North  Level Estimated
Thu 06:12:00 PM 46.0964 -70.7147 14° North  Level Estimated
Thu 06:13:00 PM 46.0964 -70.7147 14° North  Level Estimated
Thu 06:14:00 PM 46.0964 -70.7147 14° North  Level Estimated
Thu 06:15:00 PM 46.0964 -70.7147 14° North  Level Estimated
Thu 06:16:00 PM 46.0964 -70.7147 14° North  Level Estimated
Thu 06:17:00 PM 46.0964 -70.7147 14° North  Level Estimated
Thu 06:18:00 PM 46.0964 -70.7147 14° North  Level Estimated
Thu 06:19:00 PM 46.0964 -70.7147 14° North  Level Estimated
Thu 06:20:00 PM 46.0964 -70.7147 14° North  Level Estimated
Thu 06:21:00 PM 46.0964 -70.7147 14° North  Level Estimated
Thu 06:22:00 PM 46.0964 -70.7147 14° North  Level Estimated
Thu 06:23:00 PM 46.0964 -70.7147 14° North  Level Estimated
Thu 06:24:00 PM 46.0964 -70.7147 14° North  Level Estimated
Thu 06:25:00 PM 46.0964 -70.7147 14° North  Level Estimated

Login

Don't have an account? Register now (free) for customized features, flight alerts, and more!